createdAt,value
2019-04-21T00:00:00.508Z,77.00
2019-04-21T00:02:32.507Z,76.40
2019-04-21T00:05:16.494Z,77.40
2019-04-21T00:07:49.475Z,77.00
2019-04-21T00:10:14.987Z,78.30
2019-04-21T00:12:40.545Z,79.20
2019-04-21T00:15:02.217Z,79.80
2019-04-21T00:17:21.702Z,78.30
2019-04-21T00:20:05.487Z,79.60
2019-04-21T00:22:37.745Z,79.50
2019-04-21T00:25:08.953Z,79.60
2019-04-21T00:27:39.654Z,80.60
2019-04-21T00:30:14.213Z,78.90
2019-04-21T00:32:31.387Z,79.10
2019-04-21T00:34:53.581Z,78.10
2019-04-21T00:37:24.124Z,78.30
2019-04-21T00:40:03.743Z,79.20
2019-04-21T00:42:29.268Z,79.00
2019-04-21T00:44:59.152Z,80.80
2019-04-21T00:47:30.408Z,80.50
2019-04-21T00:50:00.786Z,80.90
2019-04-21T00:52:52.605Z,79.00
2019-04-21T00:55:20.209Z,80.20
2019-04-21T00:57:45.314Z,80.90
2019-04-21T01:00:10.186Z,81.20
2019-04-21T01:02:41.613Z,82.10
2019-04-21T01:05:07.024Z,81.90
2019-04-21T01:07:33.662Z,81.80
2019-04-21T01:09:52.603Z,82.30
2019-04-21T01:12:28.207Z,81.40
2019-04-21T01:15:04.705Z,81.10
2019-04-21T01:17:27.714Z,82.00
2019-04-21T01:19:51.219Z,82.70
2019-04-21T01:22:03.422Z,82.60
2019-04-21T01:24:34.719Z,82.90
2019-04-21T01:27:10.101Z,84.30
2019-04-21T01:29:45.986Z,83.60
2019-04-21T01:32:18.785Z,83.90
2019-04-21T01:34:45.319Z,83.10
2019-04-21T01:37:10.746Z,83.90
2019-04-21T01:39:51.473Z,84.70
2019-04-21T01:42:11.341Z,84.50
2019-04-21T01:44:41.669Z,84.50
2019-04-21T01:47:03.340Z,85.00
2019-04-21T01:49:26.374Z,84.10
2019-04-21T01:52:18.090Z,83.60
2019-04-21T01:54:57.120Z,84.60
2019-04-21T01:57:22.986Z,84.30
2019-04-21T01:59:51.216Z,84.00
2019-04-21T02:02:28.044Z,85.30
2019-04-21T02:04:57.562Z,85.50
2019-04-21T02:07:27.486Z,85.00
2019-04-21T02:09:51.340Z,85.30
2019-04-21T02:12:18.874Z,85.30
2019-04-21T02:15:00.749Z,84.80
2019-04-21T02:17:18.609Z,85.30
2019-04-21T02:19:45.091Z,85.80
2019-04-21T02:22:12.536Z,85.50
2019-04-21T02:24:49.628Z,84.60
2019-04-21T02:27:13.986Z,85.20
2019-04-21T02:29:51.945Z,85.70
2019-04-21T02:32:24.380Z,87.10
2019-04-21T02:39:49.502Z,87.30
2019-04-21T02:42:09.745Z,87.20
2019-04-21T02:47:13.620Z,86.80
2019-04-21T02:49:57.490Z,87.10
2019-04-21T02:52:11.577Z,86.50
2019-04-21T02:57:13.672Z,85.20
2019-04-21T02:59:42.576Z,84.80
2019-04-21T03:02:17.048Z,86.00
2019-04-21T03:04:53.333Z,85.60
2019-04-21T03:09:57.907Z,85.30
2019-04-21T03:12:18.112Z,85.90
2019-04-21T03:14:56.097Z,86.40
2019-04-21T03:17:14.236Z,85.80
2019-04-21T03:22:18.627Z,86.10
2019-04-21T03:25:01.230Z,85.30
2019-04-21T03:27:25.853Z,85.80
2019-04-21T03:29:54.390Z,87.10
2019-04-21T03:32:58.882Z,86.70
2019-04-21T03:35:19.284Z,86.70
2019-04-21T03:37:23.309Z,86.90
2019-04-21T03:39:56.833Z,87.70
2019-04-21T03:47:20.830Z,88.50
2019-04-21T03:55:47.243Z,88.20
2019-04-21T04:00:27.646Z,89.20
2019-04-21T04:03:21.019Z,89.00
2019-04-21T04:05:55.605Z,90.10
2019-04-21T04:08:31.932Z,89.80
2019-04-21T04:16:00.514Z,89.60
2019-04-21T04:18:28.376Z,89.90
2019-04-21T04:20:42.480Z,89.50
2019-04-21T04:23:31.360Z,89.30
2019-04-21T04:25:42.389Z,89.50
2019-04-21T04:28:28.050Z,90.30
2019-04-21T04:30:58.239Z,90.30
2019-04-21T04:33:11.676Z,90.30
2019-04-21T04:38:18.001Z,89.80
2019-04-21T04:40:51.295Z,90.10
2019-04-21T04:43:23.194Z,90.80
2019-04-21T04:45:48.423Z,90.30
2019-04-21T04:53:12.025Z,90.50
2019-04-21T04:55:43.412Z,88.80
2019-04-21T04:58:06.868Z,90.50
2019-04-21T05:03:01.011Z,90.30
2019-04-21T05:05:55.644Z,87.70
2019-04-21T05:08:34.135Z,87.80
2019-04-21T05:13:21.876Z,90.20
2019-04-21T05:15:53.245Z,91.00
2019-04-21T05:18:18.581Z,87.70
2019-04-21T05:21:00.227Z,90.30
2019-04-21T05:23:06.768Z,90.50
2019-04-21T05:25:26.710Z,90.40
2019-04-21T05:28:01.034Z,90.60
2019-04-21T05:30:40.370Z,90.10
2019-04-21T05:33:09.215Z,89.70
2019-04-21T05:35:47.906Z,88.10
2019-04-21T05:38:10.613Z,86.80
2019-04-21T05:40:41.420Z,87.20
2019-04-21T05:43:07.842Z,86.80
2019-04-21T05:45:40.793Z,84.30
2019-04-21T05:50:53.842Z,80.50
2019-04-21T05:53:29.591Z,80.00
2019-04-21T05:56:02.045Z,77.80
2019-04-21T05:58:27.204Z,77.80
2019-04-21T06:03:37.936Z,76.20
2019-04-21T06:06:00.760Z,77.20
2019-04-21T06:08:29.773Z,76.50
2019-04-21T06:10:58.801Z,76.10
2019-04-21T06:13:27.953Z,74.50
2019-04-21T06:15:56.981Z,71.80
2019-04-21T06:18:30.150Z,72.40
2019-04-21T06:20:51.546Z,69.80
2019-04-21T06:23:20.975Z,70.00
2019-04-21T06:28:19.280Z,67.10
2019-04-21T06:30:58.003Z,65.40
2019-04-21T06:33:15.591Z,65.90
2019-04-21T06:36:21.475Z,64.00
2019-04-21T06:38:38.125Z,63.20
2019-04-21T06:41:00.419Z,63.40
2019-04-21T06:45:54.223Z,63.80
2019-04-21T06:48:22.486Z,64.00
2019-04-21T06:50:47.968Z,64.60
2019-04-21T06:53:10.828Z,62.80
2019-04-21T06:55:41.923Z,61.80
2019-04-21T06:58:10.130Z,60.10
2019-04-21T07:00:38.470Z,62.10
2019-04-21T07:03:16.069Z,61.50
2019-04-21T07:05:41.389Z,60.90
2019-04-21T07:08:28.134Z,61.10
2019-04-21T07:10:31.784Z,59.10
2019-04-21T07:13:03.659Z,59.90
2019-04-21T07:15:36.996Z,59.90
2019-04-21T07:18:09.014Z,57.80
2019-04-21T07:20:29.770Z,56.20
2019-04-21T07:23:05.148Z,57.90
2019-04-21T07:25:32.699Z,57.00
2019-04-21T07:27:58.018Z,55.90
2019-04-21T07:30:31.659Z,57.40
2019-04-21T07:33:07.309Z,55.40
2019-04-21T07:35:25.545Z,56.40
2019-04-21T07:37:53.457Z,55.00
2019-04-21T07:40:21.776Z,55.10
2019-04-21T07:42:48.921Z,52.60
2019-04-21T07:45:13.352Z,51.10
2019-04-21T07:47:50.708Z,53.10
2019-04-21T07:50:28.643Z,51.80
2019-04-21T07:53:05.153Z,52.60
2019-04-21T07:57:44.115Z,50.70
2019-04-21T08:00:32.447Z,49.20
2019-04-21T08:02:52.447Z,47.20
2019-04-21T08:05:20.517Z,46.00
2019-04-21T08:10:09.123Z,45.00
2019-04-21T08:12:37.951Z,43.20
2019-04-21T08:15:15.666Z,43.70
2019-04-21T08:17:38.356Z,42.50
2019-04-21T08:20:09.266Z,43.60
2019-04-21T08:22:41.343Z,43.60
2019-04-21T08:25:03.155Z,43.50
2019-04-21T08:27:36.485Z,43.20
2019-04-21T08:30:01.650Z,42.70
2019-04-21T08:32:38.567Z,41.50
2019-04-21T08:35:23.918Z,41.90
2019-04-21T08:37:30.758Z,42.60
2019-04-21T08:40:04.572Z,41.20
2019-04-21T08:42:25.686Z,43.20
2019-04-21T08:45:00.196Z,39.90
2019-04-21T08:47:29.947Z,40.60
2019-04-21T08:49:54.798Z,39.80
2019-04-21T08:52:37.056Z,39.60
2019-04-21T08:54:55.790Z,39.30
2019-04-21T08:57:24.259Z,37.90
2019-04-21T09:00:08.732Z,38.10
2019-04-21T09:02:43.085Z,39.40
2019-04-21T09:05:05.084Z,37.10
2019-04-21T09:10:03.253Z,34.90
2019-04-21T09:12:33.358Z,36.20
2019-04-21T09:14:55.330Z,35.50
2019-04-21T09:17:22.148Z,34.60
2019-04-21T09:19:58.870Z,36.90
2019-04-21T09:22:28.366Z,34.00
2019-04-21T09:24:51.907Z,34.10
2019-04-21T09:27:21.810Z,33.20
2019-04-21T09:29:39.421Z,33.60
2019-04-21T09:32:01.417Z,33.30
2019-04-21T09:34:35.297Z,33.00
2019-04-21T09:37:12.710Z,32.30
2019-04-21T09:39:29.605Z,31.20
2019-04-21T09:42:00.359Z,29.30
2019-04-21T09:44:30.639Z,31.70
2019-04-21T09:50:08.519Z,30.10
2019-04-21T09:52:44.223Z,31.90
2019-04-21T09:55:13.385Z,28.40
2019-04-21T09:57:42.678Z,29.50
2019-04-21T10:00:13.085Z,29.80
2019-04-21T10:02:43.880Z,28.40
2019-04-21T10:05:05.345Z,30.00
2019-04-21T10:07:38.171Z,29.40
2019-04-21T10:10:01.244Z,28.00
2019-04-21T10:12:28.731Z,26.70
2019-04-21T10:14:55.480Z,26.80
2019-04-21T10:17:24.117Z,27.50
2019-04-21T10:19:50.898Z,26.30
2019-04-21T10:22:18.964Z,27.10
2019-04-21T10:25:10.492Z,26.50
2019-04-21T10:27:39.113Z,25.20
2019-04-21T10:30:29.239Z,26.40
2019-04-21T10:32:56.577Z,24.00
2019-04-21T10:35:24.617Z,19.50
2019-04-21T10:38:04.393Z,20.20
2019-04-21T10:40:21.265Z,20.40
2019-04-21T10:42:48.160Z,20.80
2019-04-21T10:45:17.026Z,19.50
2019-04-21T10:47:45.035Z,19.80
2019-04-21T10:50:13.109Z,20.30
2019-04-21T10:52:58.765Z,21.30
2019-04-21T10:55:45.111Z,23.30
2019-04-21T10:58:14.426Z,23.60
2019-04-21T11:00:46.188Z,23.80
2019-04-21T11:03:31.054Z,22.60
2019-04-21T11:06:00.917Z,24.50
2019-04-21T11:08:35.436Z,23.60
2019-04-21T11:10:58.197Z,23.70
2019-04-21T11:13:24.821Z,22.90
2019-04-21T11:15:52.903Z,24.30
2019-04-21T11:18:19.863Z,22.80
2019-04-21T11:20:46.948Z,22.80
2019-04-21T11:23:14.255Z,23.10
2019-04-21T11:25:42.173Z,23.00
2019-04-21T11:28:09.056Z,23.20
2019-04-21T11:30:35.861Z,23.30
2019-04-21T11:33:03.565Z,22.40
2019-04-21T11:35:32.986Z,22.70
2019-04-21T11:38:08.365Z,23.30
2019-04-21T11:40:31.748Z,24.30
2019-04-21T11:43:00.342Z,23.30
2019-04-21T11:45:34.669Z,23.00
2019-04-21T11:48:06.134Z,22.80
2019-04-21T11:50:33.099Z,23.60
2019-04-21T11:53:01.115Z,23.00
2019-04-21T11:55:34.333Z,23.00
2019-04-21T11:57:56.540Z,23.20
2019-04-21T12:00:23.984Z,23.30
2019-04-21T12:02:51.215Z,22.10
2019-04-21T12:05:19.265Z,22.20
2019-04-21T12:07:47.168Z,21.80
2019-04-21T12:10:15.393Z,22.80
2019-04-21T12:12:43.345Z,23.00
2019-04-21T12:15:12.147Z,23.90
2019-04-21T12:17:39.486Z,22.50
2019-04-21T12:20:06.472Z,23.00
2019-04-21T12:22:34.112Z,22.50
2019-04-21T12:25:03.054Z,22.90
2019-04-21T12:27:31.992Z,23.30
2019-04-21T12:29:59.671Z,23.00
2019-04-21T12:32:44.675Z,23.70
2019-04-21T12:35:13.504Z,25.50
2019-04-21T12:37:40.682Z,23.80
2019-04-21T12:40:08.516Z,23.30
2019-04-21T12:42:38.842Z,22.40
2019-04-21T12:45:07.484Z,23.20
2019-04-21T12:47:34.339Z,22.80
2019-04-21T12:50:02.582Z,23.00
2019-04-21T12:52:29.544Z,22.60
2019-04-21T12:54:57.525Z,22.60
2019-04-21T12:57:25.411Z,22.80
2019-04-21T12:59:52.927Z,23.00
2019-04-21T13:02:19.901Z,23.30
2019-04-21T13:04:49.187Z,23.60
2019-04-21T13:07:15.448Z,24.40
2019-04-21T13:09:42.148Z,23.40
2019-04-21T13:12:08.986Z,24.10
2019-04-21T13:14:35.918Z,24.10
2019-04-21T13:17:03.455Z,24.50
2019-04-21T13:19:31.444Z,24.50
2019-04-21T13:21:58.360Z,25.40
2019-04-21T13:24:26.136Z,24.60
2019-04-21T13:26:58.091Z,24.60
2019-04-21T13:29:21.530Z,23.70
2019-04-21T13:31:48.420Z,24.40
2019-04-21T13:34:15.875Z,23.80
2019-04-21T13:36:43.651Z,25.00
2019-04-21T13:39:50.279Z,25.40
2019-04-21T13:42:06.391Z,25.70
2019-04-21T13:44:23.642Z,24.80
2019-04-21T13:46:50.603Z,25.90
2019-04-21T13:49:19.197Z,24.60
2019-04-21T13:51:46.092Z,24.40
2019-04-21T13:54:13.866Z,25.10
2019-04-21T13:56:40.827Z,25.40
2019-04-21T13:59:10.558Z,24.70
2019-04-21T14:01:37.459Z,25.40
2019-04-21T14:04:05.290Z,25.10
2019-04-21T14:06:32.231Z,24.70
2019-04-21T14:09:01.128Z,25.00
2019-04-21T14:11:31.321Z,25.60
2019-04-21T14:13:58.589Z,26.00
2019-04-21T14:16:26.629Z,26.00
2019-04-21T14:18:55.122Z,25.10
2019-04-21T14:21:23.130Z,24.80
2019-04-21T14:23:52.504Z,25.30
2019-04-21T14:26:18.445Z,24.80
2019-04-21T14:28:45.221Z,25.60
2019-04-21T14:31:12.507Z,25.50
2019-04-21T14:33:40.276Z,24.30
2019-04-21T14:36:08.496Z,24.90
2019-04-21T14:38:36.628Z,26.70
2019-04-21T14:41:04.055Z,26.20
2019-04-21T14:43:32.041Z,25.70
2019-04-21T14:46:19.468Z,25.40
2019-04-21T14:49:05.552Z,25.40
2019-04-21T14:51:37.123Z,26.00
2019-04-21T14:54:06.099Z,25.70
2019-04-21T14:56:33.452Z,26.30
2019-04-21T14:59:01.341Z,26.10
2019-04-21T15:01:28.868Z,25.90
2019-04-21T15:03:55.577Z,26.40
2019-04-21T15:06:23.161Z,26.20
2019-04-21T15:08:51.083Z,26.80
2019-04-21T15:11:18.078Z,26.30
2019-04-21T15:13:45.929Z,26.90
2019-04-21T15:16:13.033Z,26.60
2019-04-21T15:18:41.004Z,26.90
2019-04-21T15:21:07.887Z,26.30
2019-04-21T15:23:36.116Z,26.10
2019-04-21T15:26:04.156Z,27.20
2019-04-21T15:28:33.816Z,26.80
2019-04-21T15:31:00.720Z,26.10
2019-04-21T15:33:28.597Z,26.90
2019-04-21T15:35:55.489Z,27.00
2019-04-21T15:38:22.383Z,26.80
2019-04-21T15:40:55.437Z,26.70
2019-04-21T15:43:18.246Z,26.80
2019-04-21T15:45:46.688Z,27.10
2019-04-21T15:48:14.029Z,26.90
2019-04-21T15:50:41.908Z,27.00
2019-04-21T15:53:11.915Z,27.00
2019-04-21T15:55:55.210Z,27.10
2019-04-21T15:58:30.461Z,26.80
2019-04-21T16:01:16.487Z,27.10
2019-04-21T16:03:44.761Z,26.80
2019-04-21T16:06:13.605Z,26.80
2019-04-21T16:08:40.664Z,27.40
2019-04-21T16:11:10.842Z,27.20
2019-04-21T16:13:37.349Z,27.30
2019-04-21T16:16:04.348Z,28.10
2019-04-21T16:18:32.195Z,27.00
2019-04-21T16:20:59.927Z,26.20
2019-04-21T16:23:26.798Z,26.60
2019-04-21T16:25:54.739Z,27.10
2019-04-21T16:28:21.698Z,27.60
2019-04-21T16:30:48.842Z,26.70
2019-04-21T16:33:15.982Z,27.00
2019-04-21T16:35:44.089Z,27.60
2019-04-21T16:38:11.279Z,28.10
2019-04-21T16:40:46.824Z,27.90
2019-04-21T16:43:07.984Z,27.70
2019-04-21T16:45:35.000Z,28.00
2019-04-21T16:48:03.133Z,28.00
2019-04-21T16:50:30.257Z,27.90
2019-04-21T16:53:01.787Z,28.50
2019-04-21T16:55:46.993Z,29.00
2019-04-21T16:58:25.100Z,29.20
2019-04-21T17:03:36.749Z,30.30
2019-04-21T17:06:05.132Z,34.80
2019-04-21T17:08:33.781Z,37.90
2019-04-21T17:11:10.803Z,32.60
2019-04-21T17:13:29.654Z,34.90
2019-04-21T17:16:28.655Z,28.90
2019-04-21T17:16:34.732Z,34.90
2019-04-21T17:18:44.923Z,35.70
2019-04-21T17:20:57.700Z,34.80
2019-04-21T17:23:22.218Z,35.40
2019-04-21T17:25:48.957Z,38.30
2019-04-21T17:28:15.816Z,39.30
2019-04-21T17:30:42.713Z,40.80
2019-04-21T17:33:14.697Z,41.10
2019-04-21T17:35:38.604Z,42.80
2019-04-21T17:38:05.873Z,41.60
2019-04-21T17:40:33.773Z,42.00
2019-04-21T17:43:05.514Z,44.50
2019-04-21T17:45:29.493Z,44.50
2019-04-21T17:48:02.456Z,44.00
2019-04-21T17:50:31.651Z,45.10
2019-04-21T17:53:05.005Z,45.60
2019-04-21T17:55:37.365Z,48.50
2019-04-21T17:58:18.244Z,47.60
2019-04-21T18:03:32.793Z,48.00
2019-04-21T18:05:48.470Z,49.30
2019-04-21T18:08:18.478Z,47.60
2019-04-21T18:10:39.025Z,50.40
2019-04-21T18:13:04.272Z,49.30
2019-04-21T18:15:40.210Z,49.50
2019-04-21T18:17:54.579Z,51.30
2019-04-21T18:20:23.939Z,49.70
2019-04-21T18:22:59.120Z,50.70
2019-04-21T18:25:44.437Z,53.70
2019-04-21T18:28:00.746Z,54.30
2019-04-21T18:30:40.278Z,53.40
2019-04-21T18:33:13.760Z,53.50
2019-04-21T18:35:58.617Z,53.50
2019-04-21T18:39:04.207Z,54.00
2019-04-21T18:41:17.299Z,55.80
2019-04-21T18:44:17.682Z,55.60
2019-04-21T18:46:38.608Z,55.60
2019-04-21T18:48:51.570Z,55.30
2019-04-21T18:51:21.932Z,56.80
2019-04-21T18:54:07.080Z,56.00
2019-04-21T18:56:19.518Z,55.70
2019-04-21T18:58:46.665Z,56.90
2019-04-21T19:01:20.870Z,57.00
2019-04-21T19:03:47.208Z,56.40
2019-04-21T19:06:16.954Z,56.40
2019-04-21T19:08:59.743Z,57.60
2019-04-21T19:11:25.404Z,57.60
2019-04-21T19:21:32.780Z,57.40
2019-04-21T19:24:17.856Z,58.30
2019-04-21T19:29:16.642Z,59.10
2019-04-21T19:31:32.406Z,59.40
2019-04-21T19:33:53.168Z,58.50
2019-04-21T19:36:13.079Z,58.70
2019-04-21T19:38:48.964Z,59.30
2019-04-21T19:41:25.446Z,58.90
2019-04-21T19:43:57.552Z,58.80
2019-04-21T19:46:27.819Z,58.40
2019-04-21T19:49:01.276Z,57.90
2019-04-21T19:51:18.169Z,57.70
2019-04-21T19:53:44.919Z,58.60
2019-04-21T19:56:00.571Z,59.30
2019-04-21T19:58:32.989Z,60.30
2019-04-21T20:00:57.483Z,61.30
2019-04-21T20:03:24.572Z,61.20
2019-04-21T20:06:00.500Z,61.00
2019-04-21T20:08:34.403Z,60.50
2019-04-21T20:11:10.422Z,60.40
2019-04-21T20:13:45.325Z,61.80
2019-04-21T20:16:07.926Z,63.30
2019-04-21T20:18:23.816Z,62.40
2019-04-21T20:20:43.839Z,63.40
2019-04-21T20:23:17.555Z,62.90
2019-04-21T20:25:47.474Z,64.10
2019-04-21T20:28:17.353Z,64.00
2019-04-21T20:30:58.420Z,64.40
2019-04-21T20:33:42.727Z,65.20
2019-04-21T20:35:59.441Z,64.80
2019-04-21T20:38:15.623Z,65.10
2019-04-21T20:40:42.791Z,66.30
2019-04-21T20:43:17.687Z,66.60
2019-04-21T20:45:49.431Z,66.40
2019-04-21T20:48:09.422Z,66.50
2019-04-21T20:50:38.054Z,67.80
2019-04-21T20:53:11.132Z,68.00
2019-04-21T20:55:35.366Z,68.50
2019-04-21T20:58:03.151Z,67.90
2019-04-21T21:00:46.178Z,69.00
2019-04-21T21:03:09.280Z,68.70
2019-04-21T21:05:27.550Z,67.60
2019-04-21T21:08:08.625Z,67.70
2019-04-21T21:10:34.801Z,67.40
2019-04-21T21:13:10.504Z,70.20
2019-04-21T21:15:34.098Z,69.70
2019-04-21T21:18:06.178Z,69.10
2019-04-21T21:20:32.465Z,69.70
2019-04-21T21:22:50.847Z,68.70
2019-04-21T21:25:35.336Z,69.40
2019-04-21T21:27:49.409Z,70.00
2019-04-21T21:30:18.298Z,70.10
2019-04-21T21:32:49.401Z,70.30
2019-04-21T21:35:18.888Z,70.50
2019-04-21T21:37:54.907Z,71.90
2019-04-21T21:40:21.974Z,71.60
2019-04-21T21:42:35.399Z,70.80
2019-04-21T21:45:04.886Z,71.80
2019-04-21T21:47:47.458Z,72.30
2019-04-21T21:50:08.882Z,73.00
2019-04-21T21:52:39.926Z,72.80
2019-04-21T21:54:53.895Z,71.40
2019-04-21T21:57:20.676Z,71.00
2019-04-21T21:59:52.929Z,70.40
2019-04-21T22:02:29.326Z,70.20
2019-04-21T22:04:58.254Z,71.50
2019-04-21T22:07:17.828Z,71.40
2019-04-21T22:09:44.295Z,71.60
2019-04-21T22:12:12.383Z,72.40
2019-04-21T22:14:44.889Z,72.70
2019-04-21T22:17:24.767Z,72.50
2019-04-21T22:20:05.379Z,73.20
2019-04-21T22:22:17.956Z,72.70
2019-04-21T22:24:49.340Z,74.30
2019-04-21T22:27:03.266Z,73.90
2019-04-21T22:29:38.146Z,74.10
2019-04-21T22:32:04.222Z,74.60
2019-04-21T22:34:32.718Z,73.20
2019-04-21T22:37:07.291Z,73.30
2019-04-21T22:39:42.101Z,74.50
2019-04-21T22:42:01.859Z,74.20
2019-04-21T22:44:22.730Z,73.80
2019-04-21T22:46:59.484Z,74.70
2019-04-21T22:49:18.689Z,74.10
2019-04-21T22:51:50.042Z,74.20
2019-04-21T22:54:24.516Z,74.50
2019-04-21T22:56:53.995Z,75.60
2019-04-21T22:59:15.939Z,77.00
2019-04-21T23:01:46.082Z,77.80
2019-04-21T23:04:10.691Z,77.50
2019-04-21T23:06:39.593Z,78.10
2019-04-21T23:09:08.819Z,77.50
2019-04-21T23:11:41.807Z,77.00
2019-04-21T23:14:08.172Z,77.20
2019-04-21T23:16:37.733Z,78.00
2019-04-21T23:19:20.124Z,77.30
2019-04-21T23:21:53.859Z,77.10
2019-04-21T23:24:14.926Z,77.80
2019-04-21T23:26:44.870Z,78.30
2019-04-21T23:29:13.937Z,78.50
2019-04-21T23:31:46.092Z,79.70
2019-04-21T23:33:54.680Z,80.30
2019-04-21T23:36:26.251Z,79.80
2019-04-21T23:38:53.210Z,79.70
2019-04-21T23:41:19.451Z,79.30
2019-04-21T23:43:55.396Z,80.60
2019-04-21T23:46:20.371Z,81.00
2019-04-21T23:49:01.801Z,79.80
2019-04-21T23:51:27.461Z,79.80
2019-04-21T23:53:43.681Z,80.10
2019-04-21T23:56:13.410Z,80.10
2019-04-21T23:58:40.358Z,80.80
